createdAt,value
2023-11-12T00:01:57.863Z,99447.25
2023-11-12T00:04:24.820Z,99447.72
2023-11-12T00:06:52.113Z,99446.59
2023-11-12T00:09:18.769Z,99444.06
2023-11-12T00:11:46.035Z,99444.03
2023-11-12T00:14:12.528Z,99438.78
2023-11-12T00:16:39.023Z,99423.06
2023-11-12T00:19:06.014Z,99435.13
2023-11-12T00:21:32.427Z,99433.34
2023-11-12T00:23:59.167Z,99432.50
2023-11-12T00:26:25.611Z,99439.50
2023-11-12T00:28:52.063Z,99435.53
2023-11-12T00:31:19.008Z,99430.41
2023-11-12T00:33:47.118Z,99435.59
2023-11-12T00:36:15.092Z,99440.00
2023-11-12T00:38:41.746Z,99428.63
2023-11-12T00:41:10.392Z,99422.66
2023-11-12T00:43:37.871Z,99420.88
2023-11-12T00:46:05.442Z,99427.63
2023-11-12T00:48:32.077Z,99428.53
2023-11-12T00:50:58.532Z,99425.00
2023-11-12T00:53:26.053Z,99419.00
2023-11-12T00:55:53.636Z,99431.94
2023-11-12T00:58:20.077Z,99433.59
2023-11-12T01:00:46.512Z,99430.34
2023-11-12T01:03:13.470Z,99428.56
2023-11-12T01:05:40.013Z,99437.06
2023-11-12T01:08:07.684Z,99439.53
2023-11-12T01:10:34.128Z,99440.53
2023-11-12T01:13:03.593Z,99442.13
2023-11-12T01:15:30.483Z,99441.03
2023-11-12T01:17:57.218Z,99437.00
2023-11-12T01:20:24.024Z,99423.56
2023-11-12T01:22:50.664Z,99431.13
2023-11-12T01:25:17.257Z,99422.13
2023-11-12T01:27:43.713Z,99421.06
2023-11-12T01:30:10.543Z,99419.91
2023-11-12T01:32:37.066Z,99414.41
2023-11-12T01:35:04.395Z,99416.28
2023-11-12T01:37:30.864Z,99411.00
2023-11-12T01:39:57.310Z,99408.81
2023-11-12T01:42:24.085Z,99405.94
2023-11-12T01:44:50.701Z,99405.97
2023-11-12T01:47:18.171Z,99401.47
2023-11-12T01:49:44.697Z,99393.28
2023-11-12T01:52:12.455Z,99397.44
2023-11-12T01:54:40.925Z,99389.59
2023-11-12T01:57:08.425Z,99392.06
2023-11-12T01:59:36.898Z,99393.09
2023-11-12T02:02:04.481Z,99389.47
2023-11-12T02:04:31.099Z,99387.75
2023-11-12T02:07:00.213Z,99398.91
2023-11-12T02:09:27.389Z,99400.44
2023-11-12T02:11:55.276Z,99395.31
2023-11-12T02:14:24.699Z,99387.50
2023-11-12T02:16:52.285Z,99385.47
2023-11-12T02:19:29.503Z,99375.31
2023-11-12T02:21:56.918Z,99370.16
2023-11-12T02:24:27.105Z,99380.44
2023-11-12T02:26:53.579Z,99376.78
2023-11-12T02:29:20.298Z,99369.97
2023-11-12T02:31:46.767Z,99366.59
2023-11-12T02:34:13.169Z,99370.81
2023-11-12T02:36:39.774Z,99372.63
2023-11-12T02:39:10.110Z,99372.00
2023-11-12T02:41:40.614Z,99357.81
2023-11-12T02:44:10.646Z,99358.78
2023-11-12T02:46:37.169Z,99352.44
2023-11-12T02:49:33.258Z,99354.91
2023-11-12T02:51:59.655Z,99352.25
2023-11-12T02:54:26.265Z,99349.81
2023-11-12T02:56:52.682Z,99347.84
2023-11-12T02:59:20.174Z,99350.72
2023-11-12T03:01:46.593Z,99348.22
2023-11-12T03:04:13.216Z,99346.72
2023-11-12T03:06:39.685Z,99338.84
2023-11-12T03:09:07.808Z,99341.47
2023-11-12T03:11:34.225Z,99336.94
2023-11-12T03:14:00.677Z,99332.28
2023-11-12T03:16:27.473Z,99329.53
2023-11-12T03:18:54.490Z,99333.06
2023-11-12T03:21:20.904Z,99337.50
2023-11-12T03:23:47.393Z,99327.75
2023-11-12T03:26:13.795Z,99332.34
2023-11-12T03:28:40.264Z,99326.41
2023-11-12T03:31:06.712Z,99343.16
2023-11-12T03:33:33.200Z,99340.22
2023-11-12T03:35:59.642Z,99330.59
2023-11-12T03:38:26.359Z,99337.56
2023-11-12T03:40:53.315Z,99343.16
2023-11-12T03:43:19.695Z,99337.50
2023-11-12T03:45:46.128Z,99329.50
2023-11-12T03:48:12.613Z,99327.13
2023-11-12T03:50:39.073Z,99325.97
2023-11-12T03:53:05.608Z,99324.00
2023-11-12T03:55:32.130Z,99326.66
2023-11-12T03:57:58.628Z,99321.25
2023-11-12T04:00:29.400Z,99312.31
2023-11-12T04:02:56.015Z,99307.25
2023-11-12T04:05:22.498Z,99305.41
2023-11-12T04:07:49.338Z,99299.72
2023-11-12T04:10:15.930Z,99290.56
2023-11-12T04:12:42.376Z,99294.69
2023-11-12T04:15:09.261Z,99297.91
2023-11-12T04:17:37.541Z,99297.13
2023-11-12T04:20:07.482Z,99302.63
2023-11-12T04:22:33.878Z,99296.22
2023-11-12T04:25:00.375Z,99285.50
2023-11-12T04:27:26.873Z,99274.28
2023-11-12T04:29:53.313Z,99274.91
2023-11-12T04:32:19.713Z,99274.03
2023-11-12T04:34:47.504Z,99279.00
2023-11-12T04:37:14.575Z,99283.63
2023-11-12T04:39:43.881Z,99278.38
2023-11-12T04:42:10.369Z,99283.41
2023-11-12T04:44:37.040Z,99285.28
2023-11-12T04:47:03.441Z,99277.53
2023-11-12T04:49:29.828Z,99283.84
2023-11-12T04:51:56.304Z,99277.88
2023-11-12T04:54:22.736Z,99286.78
2023-11-12T04:56:49.544Z,99287.34
2023-11-12T04:59:16.789Z,99285.41
2023-11-12T05:01:43.292Z,99285.97
2023-11-12T05:04:10.001Z,99278.41
2023-11-12T05:06:36.612Z,99280.91
2023-11-12T05:09:03.405Z,99276.75
2023-11-12T05:11:29.911Z,99269.41
2023-11-12T05:13:56.734Z,99272.97
2023-11-12T05:16:23.276Z,99278.94
2023-11-12T05:18:49.807Z,99282.38
2023-11-12T05:21:16.371Z,99286.25
2023-11-12T05:23:42.824Z,99278.50
2023-11-12T05:26:09.524Z,99286.25
2023-11-12T05:28:36.173Z,99291.25
2023-11-12T05:31:02.778Z,99286.69
2023-11-12T05:33:29.283Z,99286.75
2023-11-12T05:35:55.674Z,99281.22
2023-11-12T05:38:22.131Z,99289.75
2023-11-12T05:40:48.520Z,99286.50
2023-11-12T05:43:15.018Z,99290.06
2023-11-12T05:45:41.556Z,99292.41
2023-11-12T05:48:10.950Z,99293.59
2023-11-12T05:50:38.630Z,99291.88
2023-11-12T05:53:05.013Z,99296.91
2023-11-12T05:55:31.450Z,99292.41
2023-11-12T05:57:59.096Z,99300.84
2023-11-12T06:00:25.541Z,99309.00
2023-11-12T06:02:52.032Z,99313.38
2023-11-12T06:05:18.499Z,99309.78
2023-11-12T06:07:45.739Z,99314.28
2023-11-12T06:10:12.589Z,99313.38
2023-11-12T06:12:39.083Z,99317.06
2023-11-12T06:15:07.454Z,99311.50
2023-11-12T06:17:33.885Z,99317.09
2023-11-12T06:20:00.438Z,99329.66
2023-11-12T06:22:26.861Z,99335.84
2023-11-12T06:24:53.603Z,99328.88
2023-11-12T06:27:20.696Z,99331.81
2023-11-12T06:29:47.637Z,99336.94
2023-11-12T06:32:14.073Z,99337.66
2023-11-12T06:34:40.460Z,99346.53
2023-11-12T06:37:06.897Z,99355.03
2023-11-12T06:39:33.438Z,99358.94
2023-11-12T06:42:00.202Z,99358.84
2023-11-12T06:44:26.799Z,99363.13
2023-11-12T06:46:53.216Z,99381.88
2023-11-12T06:49:19.832Z,99376.69
2023-11-12T06:51:46.491Z,99381.78
2023-11-12T06:54:13.681Z,99387.06
2023-11-12T06:56:40.182Z,99388.03
2023-11-12T06:59:06.639Z,99393.16
2023-11-12T07:01:33.088Z,99397.53
2023-11-12T07:04:00.647Z,99397.16
2023-11-12T07:06:27.350Z,99404.94
2023-11-12T07:08:53.720Z,99402.47
2023-11-12T07:11:20.215Z,99398.88
2023-11-12T07:13:46.697Z,99398.41
2023-11-12T07:16:19.587Z,99405.06
2023-11-12T07:18:53.646Z,99408.88
2023-11-12T07:21:32.057Z,99407.69
2023-11-12T07:23:59.172Z,99408.28
2023-11-12T07:26:26.343Z,99411.97
2023-11-12T07:28:53.488Z,99410.84
2023-11-12T07:31:23.025Z,99417.16
2023-11-12T07:33:50.261Z,99420.00
2023-11-12T07:36:16.890Z,99413.47
2023-11-12T07:38:43.429Z,99418.63
2023-11-12T07:41:09.964Z,99422.22
2023-11-12T07:43:37.106Z,99417.16
2023-11-12T07:46:04.692Z,99417.91
2023-11-12T07:48:32.128Z,99420.69
2023-11-12T07:50:59.169Z,99427.75
2023-11-12T07:53:29.415Z,99428.06
2023-11-12T07:55:56.146Z,99420.75
2023-11-12T07:58:23.259Z,99427.97
2023-11-12T08:00:49.962Z,99416.16
2023-11-12T08:03:16.423Z,99423.22
2023-11-12T08:05:43.036Z,99425.63
2023-11-12T08:08:09.441Z,99417.72
2023-11-12T08:10:39.283Z,99431.13
2023-11-12T08:13:05.833Z,99431.53
2023-11-12T08:15:32.506Z,99426.91
2023-11-12T08:17:59.105Z,99422.13
2023-11-12T08:20:25.563Z,99421.44
2023-11-12T08:22:52.008Z,99420.59
2023-11-12T08:25:18.726Z,99423.81
2023-11-12T08:27:45.289Z,99429.09
2023-11-12T08:30:12.025Z,99426.47
2023-11-12T08:32:40.102Z,99420.56
2023-11-12T08:35:07.089Z,99424.72
2023-11-12T08:37:33.621Z,99426.19
2023-11-12T08:40:00.133Z,99430.69
2023-11-12T08:42:27.871Z,99430.94
2023-11-12T08:44:55.809Z,99431.44
2023-11-12T08:47:22.217Z,99427.38
2023-11-12T08:49:48.652Z,99427.88
2023-11-12T08:52:15.904Z,99423.53
2023-11-12T08:54:42.817Z,99429.22
2023-11-12T08:57:10.427Z,99424.09
2023-11-12T08:59:40.369Z,99434.13
2023-11-12T09:02:10.419Z,99437.94
2023-11-12T09:04:36.866Z,99440.66
2023-11-12T09:07:03.784Z,99440.75
2023-11-12T09:09:30.173Z,99437.75
2023-11-12T09:11:59.203Z,99445.47
2023-11-12T09:14:26.140Z,99442.66
2023-11-12T09:16:52.850Z,99441.63
2023-11-12T09:19:19.305Z,99439.81
2023-11-12T09:21:45.695Z,99437.84
2023-11-12T09:24:14.202Z,99448.78
2023-11-12T09:26:40.662Z,99448.72
2023-11-12T09:29:07.048Z,99447.66
2023-11-12T09:31:33.784Z,99452.53
2023-11-12T09:34:00.380Z,99456.34
2023-11-12T09:36:27.079Z,99454.84
2023-11-12T09:38:53.569Z,99457.13
2023-11-12T09:41:22.740Z,99455.78
2023-11-12T09:43:52.558Z,99445.47
2023-11-12T09:46:21.272Z,99443.94
2023-11-12T09:48:47.897Z,99449.00
2023-11-12T09:51:14.752Z,99446.47
2023-11-12T09:53:43.585Z,99441.50
2023-11-12T09:56:10.629Z,99442.34
2023-11-12T09:58:38.131Z,99452.16
2023-11-12T10:01:08.856Z,99445.63
2023-11-12T10:03:36.259Z,99443.75
2023-11-12T10:06:06.732Z,99440.25
2023-11-12T10:08:36.460Z,99437.59
2023-11-12T10:11:20.838Z,99432.47
2023-11-12T10:13:48.045Z,99444.44
2023-11-12T10:16:33.148Z,99435.31
2023-11-12T10:19:11.812Z,99429.38
2023-11-12T10:21:57.455Z,99428.91
2023-11-12T10:24:24.709Z,99432.53
2023-11-12T10:26:51.740Z,99431.34
2023-11-12T10:29:23.704Z,99430.22
2023-11-12T10:31:50.723Z,99430.34
2023-11-12T10:34:18.151Z,99433.63
2023-11-12T10:37:09.114Z,99434.97
2023-11-12T10:39:44.514Z,99434.84
2023-11-12T10:42:18.842Z,99437.09
2023-11-12T10:44:46.219Z,99435.00
2023-11-12T10:47:13.296Z,99443.94
2023-11-12T10:49:41.876Z,99429.44
2023-11-12T10:52:09.771Z,99434.00
2023-11-12T10:54:37.511Z,99427.22
2023-11-12T10:57:05.739Z,99418.31
2023-11-12T10:59:38.506Z,99417.50
2023-11-12T11:02:05.207Z,99409.31
2023-11-12T11:04:34.664Z,99407.69
2023-11-12T11:07:01.176Z,99408.31
2023-11-12T11:09:29.237Z,99407.47
2023-11-12T11:11:57.227Z,99404.69
2023-11-12T11:14:25.312Z,99410.19
2023-11-12T11:16:53.393Z,99404.81
2023-11-12T11:19:40.238Z,99400.25
2023-11-12T11:22:27.436Z,99410.59
2023-11-12T11:24:56.253Z,99400.75
2023-11-12T11:27:27.014Z,99404.00
2023-11-12T11:30:13.800Z,99406.00
2023-11-12T11:32:57.123Z,99409.31
2023-11-12T11:35:25.531Z,99409.31
2023-11-12T11:38:07.049Z,99413.50
2023-11-12T11:40:34.329Z,99416.19
2023-11-12T11:43:22.700Z,99416.22
2023-11-12T11:46:12.910Z,99414.63
2023-11-12T11:48:46.229Z,99413.59
2023-11-12T11:51:34.163Z,99421.03
2023-11-12T11:54:15.552Z,99412.53
2023-11-12T11:56:42.556Z,99419.31
2023-11-12T11:59:09.302Z,99418.06
2023-11-12T12:01:43.796Z,99409.38
2023-11-12T12:04:10.816Z,99419.94
2023-11-12T12:06:43.058Z,99410.00
2023-11-12T12:09:14.570Z,99423.22
2023-11-12T12:11:40.950Z,99420.31
2023-11-12T12:14:07.476Z,99418.84
2023-11-12T12:16:35.037Z,99419.38
2023-11-12T12:19:04.069Z,99422.06
2023-11-12T12:21:35.299Z,99416.63
2023-11-12T12:24:01.988Z,99409.78
2023-11-12T12:26:28.773Z,99402.78
2023-11-12T12:28:55.970Z,99397.53
2023-11-12T12:31:28.224Z,99396.22
2023-11-12T12:33:59.552Z,99407.78
2023-11-12T12:36:26.379Z,99407.94
2023-11-12T12:39:00.575Z,99404.59
2023-11-12T12:41:27.582Z,99405.06
2023-11-12T12:43:57.198Z,99400.63
2023-11-12T12:46:25.711Z,99401.34
2023-11-12T12:48:56.881Z,99399.22
2023-11-12T12:51:24.123Z,99403.06
2023-11-12T12:53:51.804Z,99410.56
2023-11-12T12:56:19.854Z,99388.91
2023-11-12T12:58:47.773Z,99385.66
2023-11-12T13:01:15.864Z,99384.06
2023-11-12T13:03:46.485Z,99386.84
2023-11-12T13:06:15.197Z,99373.53
2023-11-12T13:08:42.140Z,99374.56
2023-11-12T13:11:09.029Z,99371.88
2023-11-12T13:13:37.481Z,99368.28
2023-11-12T13:16:07.003Z,99361.72
2023-11-12T13:18:33.418Z,99364.31
2023-11-12T13:21:00.012Z,99357.53
2023-11-12T13:23:26.970Z,99359.50
2023-11-12T13:25:55.141Z,99361.16
2023-11-12T13:28:22.413Z,99355.66
2023-11-12T13:30:49.133Z,99346.53
2023-11-12T13:33:16.064Z,99349.13
2023-11-12T13:35:42.866Z,99339.13
2023-11-12T13:38:12.532Z,99342.69
2023-11-12T13:40:40.735Z,99347.53
2023-11-12T13:43:07.906Z,99359.44
2023-11-12T13:45:36.335Z,99372.25
2023-11-12T13:48:04.262Z,99375.84
2023-11-12T13:50:31.077Z,99367.53
2023-11-12T13:52:59.933Z,99380.53
2023-11-12T13:55:27.013Z,99382.88
2023-11-12T13:57:56.980Z,99379.81
2023-11-12T14:00:31.786Z,99391.84
2023-11-12T14:02:58.799Z,99390.69
2023-11-12T14:05:27.838Z,99393.59
2023-11-12T14:07:56.677Z,99400.94
2023-11-12T14:10:23.121Z,99399.09
2023-11-12T14:12:51.332Z,99403.72
2023-11-12T14:15:19.318Z,99397.03
2023-11-12T14:17:48.759Z,99406.53
2023-11-12T14:20:26.775Z,99404.66
2023-11-12T14:22:56.019Z,99401.13
2023-11-12T14:25:23.982Z,99406.66
2023-11-12T14:27:51.301Z,99420.50
2023-11-12T14:30:19.360Z,99411.22
2023-11-12T14:32:46.515Z,99423.97
2023-11-12T14:35:13.229Z,99416.88
2023-11-12T14:37:40.140Z,99419.22
2023-11-12T14:40:11.050Z,99414.41
2023-11-12T14:42:39.159Z,99419.81
2023-11-12T14:45:09.696Z,99422.34
2023-11-12T14:47:41.944Z,99424.28
2023-11-12T14:50:09.057Z,99424.53
2023-11-12T14:52:36.285Z,99426.72
2023-11-12T14:55:10.381Z,99420.03
2023-11-12T14:57:40.422Z,99429.59
2023-11-12T15:00:19.687Z,99430.47
2023-11-12T15:02:47.374Z,99423.72
2023-11-12T15:05:13.925Z,99433.09
2023-11-12T15:07:41.445Z,99427.34
2023-11-12T15:10:11.572Z,99426.47
2023-11-12T15:12:38.193Z,99425.88
2023-11-12T15:15:09.011Z,99429.28
2023-11-12T15:17:36.367Z,99427.13
2023-11-12T15:20:06.248Z,99432.13
2023-11-12T15:22:32.664Z,99431.16
2023-11-12T15:24:59.143Z,99431.66
2023-11-12T15:27:25.555Z,99430.81
2023-11-12T15:29:52.019Z,99439.69
2023-11-12T15:32:18.473Z,99440.16
2023-11-12T15:34:45.173Z,99438.31
2023-11-12T15:37:11.702Z,99438.97
2023-11-12T15:39:38.684Z,99444.53
2023-11-12T15:42:05.484Z,99440.53
2023-11-12T15:44:32.023Z,99436.16
2023-11-12T15:46:59.053Z,99443.00
2023-11-12T15:49:25.450Z,99439.69
2023-11-12T15:51:52.869Z,99439.69
2023-11-12T15:54:19.313Z,99452.19
2023-11-12T15:56:45.694Z,99456.69
2023-11-12T15:59:12.139Z,99462.97
2023-11-12T16:01:38.738Z,99473.84
2023-11-12T16:04:06.610Z,99476.16
2023-11-12T16:06:33.430Z,99470.00
2023-11-12T16:09:00.360Z,99469.59
2023-11-12T16:11:31.967Z,99470.66
2023-11-12T16:13:58.830Z,99473.25
2023-11-12T16:16:25.224Z,99465.53
2023-11-12T16:18:52.377Z,99479.19
2023-11-12T16:21:18.845Z,99483.00
2023-11-12T16:23:45.293Z,99480.69
2023-11-12T16:26:14.383Z,99480.50
2023-11-12T16:28:42.158Z,99486.00
2023-11-12T16:31:10.250Z,99491.28
2023-11-12T16:33:37.259Z,99494.75
2023-11-12T16:36:05.203Z,99502.09
2023-11-12T16:38:37.703Z,99501.03
2023-11-12T16:41:04.455Z,99500.84
2023-11-12T16:43:31.164Z,99502.53
2023-11-12T16:45:59.088Z,99509.78
2023-11-12T16:48:25.902Z,99506.91
2023-11-12T16:50:52.387Z,99501.78
2023-11-12T16:53:21.653Z,99508.88
2023-11-12T16:55:48.669Z,99507.81
2023-11-12T16:58:15.169Z,99506.97
2023-11-12T17:00:41.747Z,99511.53
2023-11-12T17:03:08.917Z,99513.25
2023-11-12T17:05:35.390Z,99513.06
2023-11-12T17:08:05.284Z,99499.13
2023-11-12T17:10:31.718Z,99505.78
2023-11-12T17:12:58.233Z,99503.94
2023-11-12T17:15:24.676Z,99513.06
2023-11-12T17:17:51.094Z,99511.50
2023-11-12T17:20:18.500Z,99519.00
2023-11-12T17:22:45.389Z,99511.13
2023-11-12T17:25:12.763Z,99513.47
2023-11-12T17:27:40.513Z,99511.31
2023-11-12T17:30:07.664Z,99511.31
2023-11-12T17:32:34.912Z,99507.09
2023-11-12T17:35:01.784Z,99514.63
2023-11-12T17:37:30.814Z,99515.91
2023-11-12T17:39:57.451Z,99530.06
2023-11-12T17:42:23.849Z,99535.78
2023-11-12T17:44:50.251Z,99531.28
2023-11-12T17:47:16.674Z,99539.34
2023-11-12T17:49:44.177Z,99534.22
2023-11-12T17:52:12.246Z,99532.38
2023-11-12T17:54:39.380Z,99532.25
2023-11-12T17:57:05.867Z,99530.06
2023-11-12T17:59:32.306Z,99542.91
2023-11-12T18:01:58.750Z,99549.38
2023-11-12T18:04:25.359Z,99543.31
2023-11-12T18:06:51.907Z,99544.59
2023-11-12T18:09:19.829Z,99546.31
2023-11-12T18:11:46.447Z,99538.31
2023-11-12T18:14:15.950Z,99545.25
2023-11-12T18:16:45.841Z,99549.78
2023-11-12T18:19:13.595Z,99552.19
2023-11-12T18:21:42.370Z,99547.81
2023-11-12T18:24:10.275Z,99562.16
2023-11-12T18:26:38.137Z,99570.75
2023-11-12T18:29:05.171Z,99560.88
2023-11-12T18:31:31.636Z,99563.50
2023-11-12T18:33:58.305Z,99561.88
2023-11-12T18:36:24.718Z,99552.28
2023-11-12T18:38:51.093Z,99546.31
2023-11-12T18:41:18.740Z,99559.97
2023-11-12T18:43:47.829Z,99589.47
2023-11-12T18:46:14.969Z,99593.03
2023-11-12T18:48:41.534Z,99587.25
2023-11-12T18:51:08.366Z,99574.13
2023-11-12T18:53:34.990Z,99584.69
2023-11-12T18:56:01.645Z,99581.97
2023-11-12T18:58:28.047Z,99606.03
2023-11-12T19:00:54.590Z,99599.13
2023-11-12T19:03:21.421Z,99594.56
2023-11-12T19:05:48.046Z,99593.19
2023-11-12T19:08:14.998Z,99588.75
2023-11-12T19:10:41.470Z,99590.19
2023-11-12T19:13:09.409Z,99583.56
2023-11-12T19:15:37.283Z,99586.19
2023-11-12T19:18:06.894Z,99584.25
2023-11-12T19:20:37.553Z,99588.53
2023-11-12T19:23:04.373Z,99585.13
2023-11-12T19:25:30.818Z,99589.22
2023-11-12T19:27:57.398Z,99591.34
2023-11-12T19:30:24.332Z,99579.34
2023-11-12T19:32:50.989Z,99588.56
2023-11-12T19:35:17.713Z,99582.69
2023-11-12T19:37:45.256Z,99583.59
2023-11-12T19:40:17.355Z,99595.81
2023-11-12T19:42:44.141Z,99605.38
2023-11-12T19:45:13.259Z,99613.16
2023-11-12T19:47:39.711Z,99614.91
2023-11-12T19:50:07.958Z,99621.22
2023-11-12T19:52:34.374Z,99610.84
2023-11-12T19:55:00.885Z,99620.38
2023-11-12T19:57:27.571Z,99630.03
2023-11-12T19:59:56.649Z,99627.47
2023-11-12T20:02:23.129Z,99619.63
2023-11-12T20:04:49.659Z,99609.22
2023-11-12T20:07:18.352Z,99610.63
2023-11-12T20:09:44.853Z,99617.44
2023-11-12T20:12:13.499Z,99619.19
2023-11-12T20:14:39.925Z,99610.63
2023-11-12T20:17:11.229Z,99611.13
2023-11-12T20:19:39.320Z,99607.41
2023-11-12T20:22:05.881Z,99615.44
2023-11-12T20:24:38.129Z,99621.00
2023-11-12T20:27:05.440Z,99635.13
2023-11-12T20:29:34.345Z,99636.16
2023-11-12T20:32:03.973Z,99642.91
2023-11-12T20:34:30.860Z,99631.44
2023-11-12T20:36:57.347Z,99625.06
2023-11-12T20:39:23.818Z,99618.19
2023-11-12T20:41:51.639Z,99627.81
2023-11-12T20:44:18.649Z,99625.25
2023-11-12T20:46:46.002Z,99625.28
2023-11-12T20:49:16.696Z,99619.19
2023-11-12T20:51:47.560Z,99616.16
2023-11-12T20:54:16.543Z,99613.22
2023-11-12T20:56:43.051Z,99611.06
2023-11-12T20:59:13.916Z,99613.22
2023-11-12T21:01:40.773Z,99611.19
2023-11-12T21:04:11.512Z,99614.41
2023-11-12T21:06:40.308Z,99618.91
2023-11-12T21:09:09.005Z,99626.59
2023-11-12T21:11:39.671Z,99623.03
2023-11-12T21:14:10.427Z,99623.16
2023-11-12T21:16:37.394Z,99620.56
2023-11-12T21:19:05.107Z,99622.50
2023-11-12T21:21:33.676Z,99631.19
2023-11-12T21:24:02.384Z,99626.78
2023-11-12T21:26:29.625Z,99636.25
2023-11-12T21:28:59.603Z,99641.72
2023-11-12T21:31:26.702Z,99635.78
2023-11-12T21:33:56.070Z,99639.03
2023-11-12T21:36:23.140Z,99651.00
2023-11-12T21:38:49.655Z,99652.00
2023-11-12T21:41:16.148Z,99643.88
2023-11-12T21:43:42.769Z,99645.72
2023-11-12T21:46:10.660Z,99649.38
2023-11-12T21:48:38.703Z,99643.13
2023-11-12T21:51:05.932Z,99643.81
2023-11-12T21:53:32.808Z,99643.16
2023-11-12T21:56:00.230Z,99652.03
2023-11-12T21:58:26.954Z,99633.44
2023-11-12T22:00:54.355Z,99627.09
2023-11-12T22:03:21.221Z,99630.72
2023-11-12T22:05:48.040Z,99624.84
2023-11-12T22:08:15.048Z,99629.91
2023-11-12T22:10:41.900Z,99622.84
2023-11-12T22:13:08.324Z,99629.16
2023-11-12T22:15:34.911Z,99618.50
2023-11-12T22:18:01.600Z,99620.78
2023-11-12T22:20:29.020Z,99630.31
2023-11-12T22:22:57.007Z,99628.63
2023-11-12T22:25:26.677Z,99643.22
2023-11-12T22:27:54.680Z,99644.09
2023-11-12T22:30:23.106Z,99645.13
2023-11-12T22:32:52.943Z,99647.56
2023-11-12T22:35:19.379Z,99655.66
2023-11-12T22:37:45.962Z,99670.75
2023-11-12T22:40:15.650Z,99673.97
2023-11-12T22:42:42.319Z,99678.28
2023-11-12T22:45:10.300Z,99678.22
2023-11-12T22:47:37.134Z,99674.53
2023-11-12T22:50:05.333Z,99677.91
2023-11-12T22:52:31.940Z,99670.75
2023-11-12T22:54:58.588Z,99672.28
2023-11-12T22:57:25.997Z,99659.34
2023-11-12T22:59:52.369Z,99670.28
2023-11-12T23:02:21.060Z,99677.56
2023-11-12T23:04:47.603Z,99694.66
2023-11-12T23:07:15.764Z,99683.16
2023-11-12T23:09:42.189Z,99683.03
2023-11-12T23:12:09.737Z,99674.25
2023-11-12T23:14:36.365Z,99681.03
2023-11-12T23:17:06.285Z,99686.22
2023-11-12T23:19:32.697Z,99695.78
2023-11-12T23:21:59.514Z,99690.97
2023-11-12T23:24:26.836Z,99690.19
2023-11-12T23:26:53.216Z,99683.91
2023-11-12T23:29:19.597Z,99684.72
2023-11-12T23:31:46.389Z,99681.03
2023-11-12T23:34:12.839Z,99686.66
2023-11-12T23:36:39.250Z,99682.97
2023-11-12T23:39:05.660Z,99686.41
2023-11-12T23:41:32.325Z,99678.59
2023-11-12T23:43:59.102Z,99673.41
2023-11-12T23:46:25.588Z,99668.91
2023-11-12T23:48:52.102Z,99655.22
2023-11-12T23:51:18.928Z,99669.03
2023-11-12T23:53:46.820Z,99658.69
2023-11-12T23:56:17.691Z,99654.81
2023-11-12T23:58:44.154Z,99657.03
